createdAt,value
2018-07-17T00:00:11.729Z,1006.34
2018-07-17T00:01:11.747Z,1006.33
2018-07-17T00:02:11.694Z,1006.35
2018-07-17T00:03:13.753Z,1006.35
2018-07-17T00:04:11.648Z,1006.33
2018-07-17T00:05:11.716Z,1006.35
2018-07-17T00:06:11.597Z,1006.35
2018-07-17T00:07:12.648Z,1006.35
2018-07-17T00:08:11.563Z,1006.29
2018-07-17T00:09:12.661Z,1006.35
2018-07-17T00:10:11.506Z,1006.33
2018-07-17T00:11:12.579Z,1006.30
2018-07-17T00:12:11.480Z,1006.36
2018-07-17T00:13:11.467Z,1006.34
2018-07-17T00:14:11.507Z,1006.33
2018-07-17T00:15:11.473Z,1006.33
2018-07-17T00:16:11.387Z,1006.34
2018-07-17T00:17:11.392Z,1006.31
2018-07-17T00:18:11.331Z,1006.32
2018-07-17T00:19:11.420Z,1006.30
2018-07-17T00:20:11.291Z,1006.28
2018-07-17T00:21:11.308Z,1006.31
2018-07-17T00:22:11.250Z,1006.32
2018-07-17T00:23:11.273Z,1006.28
2018-07-17T00:24:11.208Z,1006.32
2018-07-17T00:25:11.295Z,1006.32
2018-07-17T00:26:11.157Z,1006.34
2018-07-17T00:27:11.196Z,1006.31
2018-07-17T00:28:11.121Z,1006.29
2018-07-17T00:29:11.106Z,1006.27
2018-07-17T00:30:11.071Z,1006.24
2018-07-17T00:31:11.120Z,1006.25
2018-07-17T00:32:11.048Z,1006.24
2018-07-17T00:33:11.032Z,1006.21
2018-07-17T00:34:10.973Z,1006.27
2018-07-17T00:35:11.045Z,1006.30
2018-07-17T00:36:10.936Z,1006.28
2018-07-17T00:37:10.957Z,1006.26
2018-07-17T00:38:10.891Z,1006.28
2018-07-17T00:39:10.975Z,1006.29
2018-07-17T00:40:10.851Z,1006.32
2018-07-17T00:41:10.889Z,1006.32
2018-07-17T00:42:10.807Z,1006.32
2018-07-17T00:43:10.893Z,1006.30
2018-07-17T00:44:10.755Z,1006.30
2018-07-17T00:45:10.807Z,1006.31
2018-07-17T00:46:10.711Z,1006.31
2018-07-17T00:47:10.716Z,1006.32
2018-07-17T00:48:10.673Z,1006.25
2018-07-17T00:49:10.734Z,1006.25
2018-07-17T00:50:10.623Z,1006.25
2018-07-17T00:51:10.646Z,1006.25
2018-07-17T00:52:10.598Z,1006.23
2018-07-17T00:53:10.656Z,1006.24
2018-07-17T00:54:10.536Z,1006.24
2018-07-17T00:55:10.566Z,1006.20
2018-07-17T00:56:10.493Z,1006.23
2018-07-17T00:57:10.585Z,1006.19
2018-07-17T00:58:10.449Z,1006.18
2018-07-17T00:59:10.491Z,1006.19
2018-07-17T01:00:10.413Z,1006.17
2018-07-17T01:01:10.506Z,1006.16
2018-07-17T01:02:10.373Z,1006.20
2018-07-17T01:03:10.416Z,1006.14
2018-07-17T01:04:10.320Z,1006.14
2018-07-17T01:05:10.327Z,1006.15
2018-07-17T01:06:10.261Z,1006.12
2018-07-17T01:07:10.340Z,1006.15
2018-07-17T01:08:10.229Z,1006.15
2018-07-17T01:09:10.253Z,1006.14
2018-07-17T01:10:10.190Z,1006.16
2018-07-17T01:11:10.267Z,1006.10
2018-07-17T01:12:10.136Z,1006.08
2018-07-17T01:13:10.177Z,1006.10
2018-07-17T01:14:10.096Z,1006.07
2018-07-17T01:15:11.114Z,1006.04
2018-07-17T01:16:10.051Z,1006.03
2018-07-17T01:17:10.117Z,1006.02
2018-07-17T01:18:09.999Z,1006.03
2018-07-17T01:19:10.015Z,1006.03
2018-07-17T01:20:09.963Z,1006.06
2018-07-17T01:21:10.031Z,1006.06
2018-07-17T01:22:09.918Z,1006.11
2018-07-17T01:23:09.939Z,1006.08
2018-07-17T01:24:09.879Z,1006.04
2018-07-17T01:25:09.952Z,1006.05
2018-07-17T01:26:09.821Z,1006.04
2018-07-17T01:27:09.865Z,1006.06
2018-07-17T01:28:09.782Z,1006.03
2018-07-17T01:29:09.774Z,1006.01
2018-07-17T01:30:09.739Z,1005.99
2018-07-17T01:31:09.788Z,1006.00
2018-07-17T01:32:09.695Z,1005.99
2018-07-17T01:33:09.704Z,1005.96
2018-07-17T01:34:09.657Z,1005.94
2018-07-17T01:35:09.713Z,1005.94
2018-07-17T01:36:09.598Z,1005.95
2018-07-17T01:37:09.633Z,1005.93
2018-07-17T01:38:09.626Z,1005.93
2018-07-17T01:39:09.644Z,1005.94
2018-07-17T01:40:09.521Z,1005.90
2018-07-17T01:41:09.560Z,1005.93
2018-07-17T01:42:09.480Z,1005.92
2018-07-17T01:43:09.486Z,1005.90
2018-07-17T01:44:09.423Z,1005.90
2018-07-17T01:45:09.479Z,1005.87
2018-07-17T01:46:09.371Z,1005.85
2018-07-17T01:47:09.389Z,1005.88
2018-07-17T01:48:09.359Z,1005.87
2018-07-17T01:49:09.402Z,1005.83
2018-07-17T01:50:09.281Z,1005.85
2018-07-17T01:51:09.351Z,1005.87
2018-07-17T01:52:09.243Z,1005.88
2018-07-17T01:53:09.227Z,1005.88
2018-07-17T01:54:09.208Z,1005.89
2018-07-17T01:55:09.243Z,1005.88
2018-07-17T01:56:09.163Z,1005.83
2018-07-17T01:57:09.151Z,1005.84
2018-07-17T01:58:09.132Z,1005.87
2018-07-17T01:59:09.177Z,1005.86
2018-07-17T02:00:09.058Z,1005.83
2018-07-17T02:01:09.087Z,1005.87
2018-07-17T02:02:09.022Z,1005.84
2018-07-17T02:03:09.087Z,1005.88
2018-07-17T02:04:08.965Z,1005.84
2018-07-17T02:05:09.000Z,1005.82
2018-07-17T02:06:08.928Z,1005.81
2018-07-17T02:07:09.945Z,1005.84
2018-07-17T02:08:08.879Z,1005.82
2018-07-17T02:09:08.928Z,1005.83
2018-07-17T02:10:08.840Z,1005.82
2018-07-17T02:11:08.837Z,1005.82
2018-07-17T02:12:08.782Z,1005.84
2018-07-17T02:13:08.847Z,1005.83
2018-07-17T02:14:08.799Z,1005.82
2018-07-17T02:15:08.763Z,1005.84
2018-07-17T02:16:08.695Z,1005.86
2018-07-17T02:17:08.783Z,1005.85
2018-07-17T02:18:08.647Z,1005.82
2018-07-17T02:19:08.691Z,1005.81
2018-07-17T02:20:08.603Z,1005.82
2018-07-17T02:21:08.597Z,1005.81
2018-07-17T02:22:08.553Z,1005.82
2018-07-17T02:23:08.621Z,1005.88
2018-07-17T02:24:08.524Z,1005.88
2018-07-17T02:25:09.556Z,1005.85
2018-07-17T02:26:08.466Z,1005.85
2018-07-17T02:27:08.545Z,1005.88
2018-07-17T02:28:08.419Z,1005.86
2018-07-17T02:29:08.463Z,1005.84
2018-07-17T02:30:08.381Z,1005.92
2018-07-17T02:31:08.474Z,1005.90
2018-07-17T02:32:08.335Z,1005.90
2018-07-17T02:33:08.375Z,1005.89
2018-07-17T02:34:08.286Z,1005.91
2018-07-17T02:35:08.393Z,1005.90
2018-07-17T02:36:08.234Z,1005.92
2018-07-17T02:37:08.308Z,1005.91
2018-07-17T02:38:08.196Z,1005.91
2018-07-17T02:39:09.257Z,1005.95
2018-07-17T02:40:08.154Z,1005.96
2018-07-17T02:41:08.232Z,1005.98
2018-07-17T02:42:08.171Z,1005.97
2018-07-17T02:43:08.141Z,1005.93
2018-07-17T02:44:08.067Z,1005.93
2018-07-17T02:45:08.151Z,1005.94
2018-07-17T02:46:08.018Z,1005.96
2018-07-17T02:47:08.062Z,1005.97
2018-07-17T02:48:07.994Z,1005.96
2018-07-17T02:49:07.972Z,1006.00
2018-07-17T02:50:07.934Z,1006.01
2018-07-17T02:51:07.996Z,1006.02
2018-07-17T02:52:07.879Z,1006.01
2018-07-17T02:53:07.896Z,1005.97
2018-07-17T02:54:07.829Z,1006.00
2018-07-17T02:55:07.917Z,1006.00
2018-07-17T02:56:07.788Z,1005.98
2018-07-17T02:57:07.832Z,1005.94
2018-07-17T02:58:07.736Z,1005.98
2018-07-17T02:59:07.736Z,1006.00
2018-07-17T03:00:07.691Z,1005.93
2018-07-17T03:01:07.744Z,1005.94
2018-07-17T03:02:07.652Z,1005.97
2018-07-17T03:03:07.659Z,1005.96
2018-07-17T03:04:07.622Z,1005.96
2018-07-17T03:05:07.672Z,1005.92
2018-07-17T03:06:07.567Z,1005.94
2018-07-17T03:07:07.607Z,1005.93
2018-07-17T03:08:07.521Z,1005.87
2018-07-17T03:09:07.598Z,1005.91
2018-07-17T03:10:07.465Z,1005.86
2018-07-17T03:11:07.501Z,1005.90
2018-07-17T03:12:07.424Z,1005.89
2018-07-17T03:13:07.434Z,1005.90
2018-07-17T03:14:07.381Z,1005.92
2018-07-17T03:15:07.429Z,1005.85
2018-07-17T03:16:07.329Z,1005.87
2018-07-17T03:17:07.335Z,1005.92
2018-07-17T03:18:07.281Z,1005.91
2018-07-17T03:19:07.353Z,1005.92
2018-07-17T03:20:07.238Z,1005.91
2018-07-17T03:21:07.270Z,1005.94
2018-07-17T03:22:07.191Z,1005.93
2018-07-17T03:23:07.280Z,1005.96
2018-07-17T03:24:07.148Z,1005.99
2018-07-17T03:25:07.191Z,1005.95
2018-07-17T03:26:07.111Z,1005.95
2018-07-17T03:27:07.101Z,1005.94
2018-07-17T03:28:07.053Z,1005.94
2018-07-17T03:29:07.062Z,1005.97
2018-07-17T03:30:07.016Z,1005.95
2018-07-17T03:31:07.081Z,1005.93
2018-07-17T03:32:06.975Z,1005.93
2018-07-17T03:33:06.990Z,1005.93
2018-07-17T03:34:06.925Z,1005.92
2018-07-17T03:35:07.003Z,1005.91
2018-07-17T03:36:06.883Z,1005.97
2018-07-17T03:37:06.909Z,1005.94
2018-07-17T03:38:06.863Z,1005.97
2018-07-17T03:39:06.824Z,1005.99
2018-07-17T03:40:06.783Z,1005.95
2018-07-17T03:41:06.836Z,1005.96
2018-07-17T03:42:06.742Z,1005.95
2018-07-17T03:43:06.747Z,1005.97
2018-07-17T03:44:06.687Z,1005.94
2018-07-17T03:45:06.761Z,1005.98
2018-07-17T03:46:06.645Z,1005.97
2018-07-17T03:47:06.679Z,1005.97
2018-07-17T03:48:06.602Z,1005.98
2018-07-17T03:49:06.691Z,1005.97
2018-07-17T03:50:06.555Z,1005.98
2018-07-17T03:51:06.605Z,1006.00
2018-07-17T03:52:06.506Z,1006.02
2018-07-17T03:53:06.523Z,1006.05
2018-07-17T03:54:06.465Z,1006.07
2018-07-17T03:55:06.536Z,1006.04
2018-07-17T03:56:06.417Z,1006.07
2018-07-17T03:57:06.447Z,1006.05
2018-07-17T03:58:06.394Z,1006.02
2018-07-17T03:59:06.467Z,1006.05
2018-07-17T04:00:06.331Z,1005.99
2018-07-17T04:01:06.376Z,1006.00
2018-07-17T04:02:08.155Z,1006.03
2018-07-17T04:03:06.373Z,1006.06
2018-07-17T04:04:06.236Z,1006.04
2018-07-17T04:05:06.271Z,1006.07
2018-07-17T04:06:06.202Z,1006.09
2018-07-17T04:07:06.184Z,1006.08
2018-07-17T04:08:06.137Z,1006.06
2018-07-17T04:09:07.151Z,1006.05
2018-07-17T04:10:06.102Z,1006.01
2018-07-17T04:11:07.168Z,1005.99
2018-07-17T04:12:06.050Z,1005.95
2018-07-17T04:13:07.082Z,1005.98
2018-07-17T04:14:06.004Z,1005.99
2018-07-17T04:15:06.060Z,1006.05
2018-07-17T04:16:05.959Z,1006.00
2018-07-17T04:17:05.964Z,1006.03
2018-07-17T04:18:05.916Z,1006.04
2018-07-17T04:19:05.983Z,1006.05
2018-07-17T04:20:05.870Z,1006.05
2018-07-17T04:21:05.900Z,1006.01
2018-07-17T04:22:05.840Z,1006.04
2018-07-17T04:23:05.909Z,1006.03
2018-07-17T04:24:05.781Z,1006.02
2018-07-17T04:25:05.814Z,1006.05
2018-07-17T04:26:05.732Z,1006.10
2018-07-17T04:27:05.741Z,1006.07
2018-07-17T04:28:05.687Z,1006.10
2018-07-17T04:29:10.752Z,1006.10
2018-07-17T04:30:05.633Z,1006.10
2018-07-17T04:31:05.649Z,1006.10
2018-07-17T04:32:05.588Z,1006.11
2018-07-17T04:33:10.281Z,1006.11
2018-07-17T04:34:05.549Z,1006.11
2018-07-17T04:35:06.604Z,1006.13
2018-07-17T04:36:05.494Z,1006.07
2018-07-17T04:37:06.511Z,1006.07
2018-07-17T04:38:05.447Z,1006.05
2018-07-17T04:39:05.506Z,1006.09
2018-07-17T04:40:05.405Z,1006.05
2018-07-17T04:41:05.427Z,1006.03
2018-07-17T04:42:05.366Z,1006.04
2018-07-17T04:43:06.364Z,1006.04
2018-07-17T04:44:05.340Z,1006.04
2018-07-17T04:45:06.397Z,1006.04
2018-07-17T04:46:05.270Z,1006.06
2018-07-17T04:47:05.360Z,1006.06
2018-07-17T04:48:05.223Z,1006.06
2018-07-17T04:49:05.266Z,1006.10
2018-07-17T04:50:05.192Z,1006.01
2018-07-17T04:51:05.262Z,1006.08
2018-07-17T04:52:05.133Z,1006.01
2018-07-17T04:53:05.170Z,1006.07
2018-07-17T04:54:05.086Z,1006.03
2018-07-17T04:55:05.082Z,1006.09
2018-07-17T04:56:05.034Z,1006.07
2018-07-17T04:57:05.111Z,1006.06
2018-07-17T04:58:04.992Z,1006.06
2018-07-17T04:59:05.033Z,1006.08
2018-07-17T05:00:04.954Z,1006.08
2018-07-17T05:01:05.017Z,1006.12
2018-07-17T05:02:04.896Z,1006.11
2018-07-17T05:03:04.933Z,1006.16
2018-07-17T05:04:04.854Z,1006.13
2018-07-17T05:05:04.852Z,1006.14
2018-07-17T05:06:04.800Z,1006.14
2018-07-17T05:07:04.860Z,1006.18
2018-07-17T05:08:04.761Z,1006.18
2018-07-17T05:09:04.790Z,1006.19
2018-07-17T05:10:04.719Z,1006.23
2018-07-17T05:11:04.788Z,1006.22
2018-07-17T05:12:04.673Z,1006.20
2018-07-17T05:13:04.788Z,1006.23
2018-07-17T05:14:04.637Z,1006.20
2018-07-17T05:15:04.715Z,1006.26
2018-07-17T05:16:04.584Z,1006.27
2018-07-17T05:17:04.631Z,1006.25
2018-07-17T05:18:04.538Z,1006.19
2018-07-17T05:19:04.525Z,1006.21
2018-07-17T05:20:04.499Z,1006.26
2018-07-17T05:21:04.548Z,1006.23
2018-07-17T05:22:04.448Z,1006.24
2018-07-17T05:23:05.481Z,1006.26
2018-07-17T05:24:04.398Z,1006.22
2018-07-17T05:25:04.473Z,1006.25
2018-07-17T05:26:04.345Z,1006.27
2018-07-17T05:27:04.383Z,1006.24
2018-07-17T05:28:04.312Z,1006.26
2018-07-17T05:29:04.483Z,1006.28
2018-07-17T05:30:04.268Z,1006.28
2018-07-17T05:31:04.339Z,1006.25
2018-07-17T05:32:04.222Z,1006.27
2018-07-17T05:33:04.219Z,1006.31
2018-07-17T05:34:04.174Z,1006.32
2018-07-17T05:35:04.240Z,1006.33
2018-07-17T05:36:04.135Z,1006.37
2018-07-17T05:37:04.142Z,1006.41
2018-07-17T05:38:04.080Z,1006.45
2018-07-17T05:39:04.153Z,1006.42
2018-07-17T05:40:04.036Z,1006.43
2018-07-17T05:41:04.065Z,1006.43
2018-07-17T05:42:04.000Z,1006.47
2018-07-17T05:43:04.082Z,1006.50
2018-07-17T05:44:03.945Z,1006.52
2018-07-17T05:45:03.999Z,1006.57
2018-07-17T05:46:03.893Z,1006.56
2018-07-17T05:47:04.925Z,1006.60
2018-07-17T05:48:03.845Z,1006.60
2018-07-17T05:49:03.919Z,1006.58
2018-07-17T05:50:03.806Z,1006.58
2018-07-17T05:51:03.849Z,1006.60
2018-07-17T05:52:03.788Z,1006.62
2018-07-17T05:53:03.843Z,1006.63
2018-07-17T05:54:03.710Z,1006.64
2018-07-17T05:55:03.747Z,1006.66
2018-07-17T05:56:03.685Z,1006.65
2018-07-17T05:57:03.753Z,1006.63
2018-07-17T05:58:03.629Z,1006.61
2018-07-17T05:59:03.660Z,1006.62
2018-07-17T06:00:03.605Z,1006.58
2018-07-17T06:01:03.646Z,1006.60
2018-07-17T06:02:03.531Z,1006.59
2018-07-17T06:03:03.560Z,1006.54
2018-07-17T06:04:03.502Z,1006.57
2018-07-17T06:05:03.568Z,1006.53
2018-07-17T06:06:03.435Z,1006.54
2018-07-17T06:07:03.492Z,1006.55
2018-07-17T06:08:03.392Z,1006.59
2018-07-17T06:09:03.419Z,1006.64
2018-07-17T06:10:03.345Z,1006.65
2018-07-17T06:11:03.413Z,1006.60
2018-07-17T06:12:03.315Z,1006.59
2018-07-17T06:13:03.322Z,1006.53
2018-07-17T06:14:03.261Z,1006.50
2018-07-17T06:15:03.334Z,1006.48
2018-07-17T06:16:03.246Z,1006.50
2018-07-17T06:17:03.287Z,1006.58
2018-07-17T06:18:03.169Z,1006.57
2018-07-17T06:19:03.338Z,1006.55
2018-07-17T06:20:03.119Z,1006.58
2018-07-17T06:21:03.169Z,1006.60
2018-07-17T06:22:03.110Z,1006.61
2018-07-17T06:23:03.106Z,1006.62
2018-07-17T06:24:03.050Z,1006.60
2018-07-17T06:25:03.155Z,1006.58
2018-07-17T06:26:02.988Z,1006.56
2018-07-17T06:27:03.032Z,1006.56
2018-07-17T06:28:02.974Z,1006.51
2018-07-17T06:29:03.043Z,1006.52
2018-07-17T06:30:02.894Z,1006.55
2018-07-17T06:31:02.874Z,1006.58
2018-07-17T06:32:02.857Z,1006.55
2018-07-17T06:33:02.983Z,1006.59
2018-07-17T06:34:02.801Z,1006.61
2018-07-17T06:35:02.856Z,1006.59
2018-07-17T06:36:02.758Z,1006.60
2018-07-17T06:37:02.762Z,1006.60
2018-07-17T06:38:02.706Z,1006.62
2018-07-17T06:39:03.784Z,1006.60
2018-07-17T06:40:02.678Z,1006.55
2018-07-17T06:41:02.693Z,1006.61
2018-07-17T06:42:02.646Z,1006.63
2018-07-17T06:43:02.750Z,1006.58
2018-07-17T06:44:02.571Z,1006.60
2018-07-17T06:45:02.606Z,1006.62
2018-07-17T06:46:02.543Z,1006.59
2018-07-17T06:47:02.610Z,1006.60
2018-07-17T06:48:02.497Z,1006.63
2018-07-17T06:49:02.524Z,1006.63
2018-07-17T06:50:02.435Z,1006.59
2018-07-17T06:51:02.448Z,1006.54
2018-07-17T06:52:02.400Z,1006.57
2018-07-17T06:53:02.467Z,1006.54
2018-07-17T06:54:02.346Z,1006.55
2018-07-17T06:55:02.358Z,1006.57
2018-07-17T06:56:02.312Z,1006.59
2018-07-17T06:57:02.377Z,1006.64
2018-07-17T06:58:02.251Z,1006.65
2018-07-17T06:59:02.293Z,1006.61
2018-07-17T07:00:02.224Z,1006.65
2018-07-17T07:01:02.301Z,1006.64
2018-07-17T07:02:02.189Z,1006.64
2018-07-17T07:03:02.221Z,1006.69
2018-07-17T07:04:02.120Z,1006.72
2018-07-17T07:05:02.118Z,1006.76
2018-07-17T07:06:02.091Z,1006.81
2018-07-17T07:07:02.067Z,1006.82
2018-07-17T07:08:02.037Z,1006.81
2018-07-17T07:09:01.999Z,1006.81
2018-07-17T07:10:01.986Z,1006.82
2018-07-17T07:11:01.977Z,1006.80
2018-07-17T07:12:01.936Z,1006.82
2018-07-17T07:13:01.909Z,1006.79
2018-07-17T07:14:01.888Z,1006.80
2018-07-17T07:15:01.857Z,1006.82
2018-07-17T07:16:02.862Z,1006.85
2018-07-17T07:17:01.814Z,1006.85
2018-07-17T07:18:01.805Z,1006.88
2018-07-17T07:19:01.775Z,1006.87
2018-07-17T07:20:01.759Z,1006.80
2018-07-17T07:21:01.733Z,1006.80
2018-07-17T07:22:01.704Z,1006.83
2018-07-17T07:23:01.676Z,1006.85
2018-07-17T07:24:01.659Z,1006.85
2018-07-17T07:25:01.654Z,1006.84
2018-07-17T07:26:01.616Z,1006.86
2018-07-17T07:27:01.599Z,1006.88
2018-07-17T07:28:01.592Z,1006.91
2018-07-17T07:29:01.547Z,1006.87
2018-07-17T07:30:01.533Z,1006.89
2018-07-17T07:31:01.566Z,1006.92
2018-07-17T07:32:01.478Z,1006.90
2018-07-17T07:33:01.449Z,1006.96
2018-07-17T07:34:01.443Z,1006.92
2018-07-17T07:35:01.411Z,1006.93
2018-07-17T07:36:01.393Z,1006.91
2018-07-17T07:37:01.364Z,1006.92
2018-07-17T07:38:01.344Z,1006.87
2018-07-17T07:39:01.300Z,1006.87
2018-07-17T07:40:01.294Z,1006.88
2018-07-17T07:41:01.267Z,1006.86
2018-07-17T07:42:01.250Z,1006.87
2018-07-17T07:43:01.239Z,1006.87
2018-07-17T07:44:01.200Z,1006.91
2018-07-17T07:45:01.170Z,1006.90
2018-07-17T07:46:01.147Z,1006.90
2018-07-17T07:47:01.115Z,1006.89
2018-07-17T07:48:01.160Z,1006.93
2018-07-17T07:49:01.077Z,1006.89
2018-07-17T07:50:01.061Z,1006.91
2018-07-17T07:51:01.045Z,1006.91
2018-07-17T07:52:01.032Z,1006.93
2018-07-17T07:53:00.981Z,1006.91
2018-07-17T07:54:00.999Z,1006.92
2018-07-17T07:55:00.944Z,1006.95
2018-07-17T07:56:00.917Z,1006.91
2018-07-17T07:57:00.899Z,1006.95
2018-07-17T07:58:00.881Z,1006.88
2018-07-17T07:59:00.847Z,1006.89
2018-07-17T08:00:00.850Z,1006.92
2018-07-17T08:01:00.800Z,1006.92
2018-07-17T08:02:00.799Z,1006.89
2018-07-17T08:03:00.751Z,1006.90
2018-07-17T08:04:00.862Z,1006.87
2018-07-17T08:05:00.714Z,1006.88
2018-07-17T08:06:00.705Z,1006.87
2018-07-17T08:07:00.659Z,1006.85
2018-07-17T08:08:00.638Z,1006.91
2018-07-17T08:09:00.623Z,1006.88
2018-07-17T08:10:00.604Z,1006.89
2018-07-17T08:11:00.575Z,1006.91
2018-07-17T08:12:00.601Z,1006.89
2018-07-17T08:13:00.533Z,1006.92
2018-07-17T08:14:00.584Z,1006.94
2018-07-17T08:15:00.480Z,1006.92
2018-07-17T08:16:00.490Z,1006.90
2018-07-17T08:17:00.430Z,1006.90
2018-07-17T08:18:00.418Z,1006.90
2018-07-17T08:19:00.396Z,1006.90
2018-07-17T08:20:00.376Z,1006.87
2018-07-17T08:21:00.344Z,1006.91
2018-07-17T08:22:00.329Z,1006.94
2018-07-17T08:23:00.311Z,1006.90
2018-07-17T08:24:00.273Z,1006.88
2018-07-17T08:25:00.254Z,1006.94
2018-07-17T08:26:00.238Z,1006.91
2018-07-17T08:27:00.225Z,1006.97
2018-07-17T08:28:00.196Z,1006.96
2018-07-17T08:29:00.158Z,1006.91
2018-07-17T08:30:00.150Z,1006.97
2018-07-17T08:31:00.115Z,1006.99
2018-07-17T08:32:00.100Z,1006.93
2018-07-17T08:33:00.073Z,1006.93
2018-07-17T08:34:00.052Z,1006.94
2018-07-17T08:35:00.053Z,1006.92
2018-07-17T08:36:00.021Z,1006.92
2018-07-17T08:36:59.979Z,1006.95
2018-07-17T08:38:00.967Z,1006.95
2018-07-17T08:38:59.940Z,1006.93
2018-07-17T08:39:59.945Z,1006.94
2018-07-17T08:40:59.970Z,1006.92
2018-07-17T08:41:59.891Z,1006.94
2018-07-17T08:42:59.881Z,1006.96
2018-07-17T08:43:59.836Z,1006.94
2018-07-17T08:44:59.793Z,1006.99
2018-07-17T08:45:59.791Z,1006.94
2018-07-17T08:46:59.784Z,1006.94
2018-07-17T08:47:59.745Z,1006.99
2018-07-17T08:48:59.703Z,1006.93
2018-07-17T08:49:59.712Z,1006.93
2018-07-17T08:50:59.665Z,1006.93
2018-07-17T08:52:00.642Z,1006.94
2018-07-17T08:52:59.615Z,1006.93
2018-07-17T08:53:59.602Z,1006.95
2018-07-17T08:54:59.585Z,1006.95
2018-07-17T08:55:59.562Z,1006.94
2018-07-17T08:56:59.530Z,1006.94
2018-07-17T08:57:59.514Z,1007.00
2018-07-17T08:58:59.497Z,1006.95
2018-07-17T08:59:59.497Z,1006.98
2018-07-17T09:00:59.447Z,1007.00
2018-07-17T09:01:59.432Z,1007.03
2018-07-17T09:02:59.411Z,1007.08
2018-07-17T09:03:59.380Z,1007.12
2018-07-17T09:04:59.348Z,1007.07
2018-07-17T09:05:59.547Z,1007.09
2018-07-17T09:06:59.347Z,1007.04
2018-07-17T09:07:59.288Z,1007.08
2018-07-17T09:08:59.275Z,1007.07
2018-07-17T09:09:59.245Z,1007.07
2018-07-17T09:10:59.224Z,1007.09
2018-07-17T09:11:59.212Z,1007.04
2018-07-17T09:12:59.322Z,1007.01
2018-07-17T09:13:59.161Z,1007.04
2018-07-17T09:14:59.137Z,1007.03
2018-07-17T09:15:59.101Z,1007.06
2018-07-17T09:16:59.084Z,1007.03
2018-07-17T09:17:59.069Z,1007.08
2018-07-17T09:18:59.050Z,1007.04
2018-07-17T09:19:59.025Z,1007.08
2018-07-17T09:20:58.997Z,1007.08
2018-07-17T09:21:59.050Z,1007.10
2018-07-17T09:22:58.956Z,1007.09
2018-07-17T09:23:59.983Z,1007.09
2018-07-17T09:24:58.920Z,1007.09
2018-07-17T09:25:58.975Z,1007.11
2018-07-17T09:26:58.882Z,1007.07
2018-07-17T09:27:59.910Z,1007.06
2018-07-17T09:28:58.829Z,1007.06
2018-07-17T09:29:58.900Z,1007.05
2018-07-17T09:30:58.780Z,1007.03
2018-07-17T09:31:58.920Z,1007.10
2018-07-17T09:32:58.737Z,1007.11
2018-07-17T09:33:58.832Z,1007.08
2018-07-17T09:34:58.688Z,1007.07
2018-07-17T09:35:59.772Z,1007.05
2018-07-17T09:36:58.644Z,1007.03
2018-07-17T09:37:58.770Z,1007.05
2018-07-17T09:38:58.613Z,1007.09
2018-07-17T09:39:58.656Z,1007.13
2018-07-17T09:40:58.553Z,1007.16
2018-07-17T09:41:58.673Z,1007.15
2018-07-17T09:42:58.505Z,1007.15
2018-07-17T09:43:58.549Z,1007.18
2018-07-17T09:44:58.467Z,1007.17
2018-07-17T09:45:58.685Z,1007.11
2018-07-17T09:46:58.434Z,1007.20
2018-07-17T09:47:58.473Z,1007.14
2018-07-17T09:48:58.387Z,1007.19
2018-07-17T09:49:58.388Z,1007.19
2018-07-17T09:50:58.341Z,1007.17
2018-07-17T09:51:58.514Z,1007.15
2018-07-17T09:52:58.291Z,1007.20
2018-07-17T09:53:58.308Z,1007.19
2018-07-17T09:54:58.247Z,1007.18
2018-07-17T09:55:58.315Z,1007.15
2018-07-17T09:56:58.205Z,1007.20
2018-07-17T09:57:58.226Z,1007.21
2018-07-17T09:58:58.167Z,1007.18
2018-07-17T09:59:58.227Z,1007.21
2018-07-17T10:00:58.115Z,1007.23
2018-07-17T10:01:58.147Z,1007.23
2018-07-17T10:02:58.072Z,1007.25
2018-07-17T10:03:58.157Z,1007.24
2018-07-17T10:04:58.035Z,1007.22
2018-07-17T10:05:58.063Z,1007.25
2018-07-17T10:06:57.983Z,1007.31
2018-07-17T10:07:58.079Z,1007.28
2018-07-17T10:08:57.944Z,1007.33
2018-07-17T10:09:57.939Z,1007.33
2018-07-17T10:10:57.898Z,1007.34
2018-07-17T10:11:57.881Z,1007.30
2018-07-17T10:12:57.861Z,1007.30
2018-07-17T10:13:57.850Z,1007.30
2018-07-17T10:14:57.825Z,1007.28
2018-07-17T10:15:57.802Z,1007.32
2018-07-17T10:16:57.772Z,1007.31
2018-07-17T10:17:57.754Z,1007.33
2018-07-17T10:18:57.747Z,1007.31
2018-07-17T10:19:57.779Z,1007.29
2018-07-17T10:20:57.724Z,1007.30
2018-07-17T10:21:57.666Z,1007.27
2018-07-17T10:22:57.646Z,1007.28
2018-07-17T10:23:57.630Z,1007.27
2018-07-17T10:24:57.617Z,1007.32
2018-07-17T10:25:57.596Z,1007.28
2018-07-17T10:26:57.604Z,1007.28
2018-07-17T10:27:57.551Z,1007.30
2018-07-17T10:28:57.520Z,1007.26
2018-07-17T10:29:57.507Z,1007.29
2018-07-17T10:30:57.466Z,1007.28
2018-07-17T10:31:57.537Z,1007.27
2018-07-17T10:32:57.422Z,1007.31
2018-07-17T10:33:57.411Z,1007.27
2018-07-17T10:34:57.378Z,1007.27
2018-07-17T10:35:57.358Z,1007.31
2018-07-17T10:36:57.340Z,1007.30
2018-07-17T10:37:57.324Z,1007.33
2018-07-17T10:38:57.317Z,1007.33
2018-07-17T10:39:57.318Z,1007.34
2018-07-17T10:40:57.274Z,1007.35
2018-07-17T10:41:57.236Z,1007.33
2018-07-17T10:42:57.255Z,1007.31
2018-07-17T10:43:57.238Z,1007.37
2018-07-17T10:44:57.167Z,1007.35
2018-07-17T10:45:57.146Z,1007.35
2018-07-17T10:46:57.231Z,1007.32
2018-07-17T10:47:57.159Z,1007.32
2018-07-17T10:48:57.136Z,1007.35
2018-07-17T10:49:57.104Z,1007.33
2018-07-17T10:50:57.060Z,1007.31
2018-07-17T10:51:57.105Z,1007.27
2018-07-17T10:52:57.003Z,1007.26
2018-07-17T10:53:56.970Z,1007.22
2018-07-17T10:54:56.963Z,1007.25
2018-07-17T10:55:56.971Z,1007.24
2018-07-17T10:56:56.998Z,1007.24
2018-07-17T10:57:56.882Z,1007.24
2018-07-17T10:58:56.896Z,1007.27
2018-07-17T10:59:56.856Z,1007.22
2018-07-17T11:00:56.832Z,1007.23
2018-07-17T11:01:56.800Z,1007.26
2018-07-17T11:02:56.792Z,1007.26
2018-07-17T11:03:56.756Z,1007.22
2018-07-17T11:04:56.743Z,1007.22
2018-07-17T11:05:56.718Z,1007.20
2018-07-17T11:06:56.701Z,1007.17
2018-07-17T11:07:56.680Z,1007.23
2018-07-17T11:08:56.666Z,1007.19
2018-07-17T11:09:56.636Z,1007.17
2018-07-17T11:10:56.613Z,1007.15
2018-07-17T11:11:56.683Z,1007.19
2018-07-17T11:12:56.598Z,1007.15
2018-07-17T11:13:57.601Z,1007.11
2018-07-17T11:14:56.527Z,1007.11
2018-07-17T11:15:56.591Z,1007.13
2018-07-17T11:16:56.475Z,1007.08
2018-07-17T11:17:56.515Z,1007.15
2018-07-17T11:18:56.435Z,1007.21
2018-07-17T11:19:56.531Z,1007.16
2018-07-17T11:20:56.407Z,1007.15
2018-07-17T11:21:56.429Z,1007.16
2018-07-17T11:22:56.363Z,1007.14
2018-07-17T11:23:56.440Z,1007.21
2018-07-17T11:24:56.312Z,1007.17
2018-07-17T11:25:56.353Z,1007.14
2018-07-17T11:26:56.272Z,1007.12
2018-07-17T11:27:56.374Z,1007.16
2018-07-17T11:28:56.231Z,1007.13
2018-07-17T11:29:56.277Z,1007.10
2018-07-17T11:30:56.197Z,1007.11
2018-07-17T11:31:56.306Z,1007.09
2018-07-17T11:32:56.148Z,1007.07
2018-07-17T11:33:56.252Z,1007.02
2018-07-17T11:34:56.184Z,1007.11
2018-07-17T11:35:56.237Z,1007.08
2018-07-17T11:36:56.110Z,1007.02
2018-07-17T11:37:56.145Z,1007.07
2018-07-17T11:38:56.026Z,1007.13
2018-07-17T11:39:56.040Z,1007.11
2018-07-17T11:40:55.988Z,1007.12
2018-07-17T11:41:56.060Z,1007.09
2018-07-17T11:42:55.945Z,1007.05
2018-07-17T11:43:55.984Z,1007.04
2018-07-17T11:44:55.900Z,1007.03
2018-07-17T11:45:55.981Z,1007.07
2018-07-17T11:46:55.857Z,1007.03
2018-07-17T11:47:55.971Z,1007.00
2018-07-17T11:48:55.822Z,1007.03
2018-07-17T11:49:55.867Z,1007.05
2018-07-17T11:50:55.776Z,1007.05
2018-07-17T11:51:55.790Z,1007.03
2018-07-17T11:52:55.743Z,1007.01
2018-07-17T11:53:55.791Z,1007.03
2018-07-17T11:54:55.704Z,1007.06
2018-07-17T11:55:55.701Z,1007.06
2018-07-17T11:56:55.644Z,1007.06
2018-07-17T11:57:56.745Z,1007.09
2018-07-17T11:58:55.620Z,1007.16
2018-07-17T11:59:55.627Z,1007.17
2018-07-17T12:00:55.565Z,1007.14
2018-07-17T12:01:55.643Z,1007.10
2018-07-17T12:02:55.518Z,1007.09
2018-07-17T12:03:55.550Z,1007.13
2018-07-17T12:04:55.479Z,1007.15